createdAt,value
2023-02-15T00:00:14.552Z,8.80
2023-02-15T00:03:12.865Z,9.00
2023-02-15T00:05:42.830Z,9.70
2023-02-15T00:08:15.512Z,8.40
2023-02-15T00:10:44.749Z,8.80
2023-02-15T00:13:18.322Z,7.70
2023-02-15T00:15:47.848Z,9.60
2023-02-15T00:18:20.918Z,9.70
2023-02-15T00:20:51.458Z,10.00
2023-02-15T00:23:29.108Z,10.10
2023-02-15T00:26:21.332Z,7.80
2023-02-15T00:29:03.831Z,9.00
2023-02-15T00:31:39.580Z,8.50
2023-02-15T00:34:19.072Z,8.00
2023-02-15T00:36:59.856Z,9.00
2023-02-15T00:39:33.733Z,8.70
2023-02-15T00:42:14.905Z,7.80
2023-02-15T00:44:52.871Z,8.70
2023-02-15T00:47:34.853Z,9.00
2023-02-15T00:50:12.234Z,9.90
2023-02-15T00:52:41.714Z,8.90
2023-02-15T00:55:11.241Z,8.90
2023-02-15T00:57:44.349Z,7.70
2023-02-15T01:00:18.431Z,7.80
2023-02-15T01:02:55.970Z,6.50
2023-02-15T01:05:40.368Z,9.20
2023-02-15T01:08:14.202Z,9.40
2023-02-15T01:11:11.424Z,9.50
2023-02-15T01:14:09.251Z,8.40
2023-02-15T01:16:47.765Z,8.60
2023-02-15T01:19:19.769Z,8.60
2023-02-15T01:21:51.956Z,8.90
2023-02-15T01:24:32.029Z,8.90
2023-02-15T01:27:07.823Z,9.40
2023-02-15T01:29:43.438Z,8.40
2023-02-15T01:32:18.927Z,9.60
2023-02-15T01:34:51.700Z,9.30
2023-02-15T01:37:22.647Z,9.70
2023-02-15T01:39:58.357Z,7.80
2023-02-15T01:42:35.216Z,8.80
2023-02-15T01:45:40.376Z,8.80
2023-02-15T01:48:32.016Z,8.80
2023-02-15T01:51:07.974Z,8.60
2023-02-15T01:53:57.041Z,9.30
2023-02-15T01:56:43.756Z,9.40
2023-02-15T01:59:28.914Z,9.90
2023-02-15T02:02:09.772Z,8.30
2023-02-15T02:04:57.420Z,9.20
2023-02-15T02:07:35.919Z,9.00
2023-02-15T02:10:13.111Z,8.60
2023-02-15T02:12:55.616Z,10.50
2023-02-15T02:18:23.800Z,9.20
2023-02-15T02:21:24.530Z,6.90
2023-02-15T02:24:23.300Z,9.10
2023-02-15T02:27:27.480Z,9.40
2023-02-15T02:30:22.984Z,8.80
2023-02-15T02:33:41.118Z,9.40
2023-02-15T02:36:39.918Z,10.80
2023-02-15T02:39:33.462Z,9.80
2023-02-15T02:42:30.705Z,8.50
2023-02-15T02:45:10.633Z,9.10
2023-02-15T02:48:08.089Z,10.50
2023-02-15T02:50:43.118Z,10.00
2023-02-15T02:53:15.178Z,9.70
2023-02-15T02:56:07.698Z,9.80
2023-02-15T02:58:54.519Z,9.50
2023-02-15T03:01:36.617Z,9.70
2023-02-15T03:04:14.473Z,9.60
2023-02-15T03:07:09.308Z,10.20
2023-02-15T03:09:47.703Z,8.50
2023-02-15T03:12:19.956Z,9.00
2023-02-15T03:15:00.425Z,9.10
2023-02-15T03:17:39.042Z,10.10
2023-02-15T03:20:26.905Z,10.00
2023-02-15T03:23:13.764Z,9.20
2023-02-15T03:25:53.793Z,9.10
2023-02-15T03:28:34.566Z,10.10
2023-02-15T03:31:09.386Z,9.60
2023-02-15T03:33:54.484Z,9.80
2023-02-15T03:36:28.655Z,9.30
2023-02-15T03:39:23.239Z,9.50
2023-02-15T03:42:04.708Z,9.30
2023-02-15T03:44:47.977Z,9.20
2023-02-15T03:47:25.306Z,9.80
2023-02-15T03:50:26.206Z,13.30
2023-02-15T03:53:01.523Z,11.80
2023-02-15T03:55:35.304Z,14.80
2023-02-15T03:58:26.598Z,12.30
2023-02-15T04:01:31.880Z,13.30
2023-02-15T04:04:23.114Z,13.50
2023-02-15T04:06:56.431Z,13.00
2023-02-15T04:09:44.902Z,12.90
2023-02-15T04:12:15.055Z,13.00
2023-02-15T04:15:03.546Z,12.00
2023-02-15T04:17:33.605Z,12.30
2023-02-15T04:20:21.522Z,11.20
2023-02-15T04:23:13.298Z,12.40
2023-02-15T04:25:43.496Z,12.00
2023-02-15T04:28:13.402Z,13.40
2023-02-15T04:30:43.492Z,13.60
2023-02-15T04:33:12.907Z,13.90
2023-02-15T04:35:46.387Z,13.30
2023-02-15T04:38:17.091Z,12.30
2023-02-15T04:40:53.475Z,13.70
2023-02-15T04:43:24.370Z,11.90
2023-02-15T04:45:54.428Z,12.80
2023-02-15T04:48:24.098Z,12.40
2023-02-15T04:50:54.545Z,11.90
2023-02-15T04:53:24.372Z,11.10
2023-02-15T04:55:54.366Z,11.80
2023-02-15T04:58:23.851Z,11.80
2023-02-15T05:00:58.753Z,11.70
2023-02-15T05:03:28.472Z,10.40
2023-02-15T05:05:58.199Z,11.30
2023-02-15T05:08:28.248Z,10.50
2023-02-15T05:10:58.736Z,11.00
2023-02-15T05:13:28.718Z,11.80
2023-02-15T05:15:58.448Z,11.90
2023-02-15T05:18:29.395Z,12.80
2023-02-15T05:20:59.170Z,13.70
2023-02-15T05:23:28.746Z,13.30
2023-02-15T05:26:18.430Z,12.60
2023-02-15T05:28:48.145Z,14.60
2023-02-15T05:31:21.021Z,13.30
2023-02-15T05:33:51.971Z,13.30
2023-02-15T05:36:21.755Z,13.40
2023-02-15T05:38:51.353Z,13.80
2023-02-15T05:41:20.812Z,14.00
2023-02-15T05:43:50.246Z,13.60
2023-02-15T05:46:19.818Z,13.60
2023-02-15T05:48:49.824Z,12.20
2023-02-15T05:51:20.386Z,14.40
2023-02-15T05:53:50.321Z,13.30
2023-02-15T05:56:20.765Z,14.40
2023-02-15T05:58:50.354Z,13.50
2023-02-15T06:01:24.026Z,14.20
2023-02-15T06:03:55.841Z,13.90
2023-02-15T06:06:27.218Z,13.70
2023-02-15T06:08:57.198Z,13.20
2023-02-15T06:11:27.133Z,13.60
2023-02-15T06:13:56.107Z,14.90
2023-02-15T06:16:26.179Z,17.00
2023-02-15T06:18:56.947Z,16.80
2023-02-15T06:21:27.711Z,15.00
2023-02-15T06:23:58.114Z,16.00
2023-02-15T06:26:28.249Z,15.40
2023-02-15T06:28:58.343Z,15.50
2023-02-15T06:31:28.552Z,17.80
2023-02-15T06:34:03.635Z,16.80
2023-02-15T06:36:34.025Z,16.40
2023-02-15T06:39:04.442Z,15.70
2023-02-15T06:41:34.076Z,18.20
2023-02-15T06:44:04.422Z,17.80
2023-02-15T06:46:34.492Z,17.20
2023-02-15T06:49:04.537Z,18.10
2023-02-15T06:51:35.651Z,18.70
2023-02-15T06:54:05.698Z,17.70
2023-02-15T06:56:35.286Z,18.70
2023-02-15T06:59:05.191Z,19.90
2023-02-15T07:01:35.316Z,21.10
2023-02-15T07:04:05.405Z,18.30
2023-02-15T07:06:35.232Z,22.00
2023-02-15T07:09:06.213Z,19.50
2023-02-15T07:11:54.822Z,19.20
2023-02-15T07:14:24.481Z,16.70
2023-02-15T07:16:54.216Z,16.40
2023-02-15T07:19:24.165Z,14.00
2023-02-15T07:21:54.389Z,14.80
2023-02-15T07:24:24.458Z,11.50
2023-02-15T07:26:55.005Z,15.70
2023-02-15T07:29:25.593Z,15.10
2023-02-15T07:31:55.359Z,17.10
2023-02-15T07:34:24.847Z,17.10
2023-02-15T07:36:55.308Z,18.90
2023-02-15T07:39:25.360Z,20.60
2023-02-15T07:41:55.618Z,17.60
2023-02-15T07:44:25.296Z,18.10
2023-02-15T07:46:57.845Z,15.70
2023-02-15T07:49:29.246Z,18.20
2023-02-15T07:52:01.947Z,16.90
2023-02-15T07:54:31.952Z,15.40
2023-02-15T07:57:04.002Z,16.10
2023-02-15T07:59:33.269Z,17.00
2023-02-15T08:02:02.976Z,17.20
2023-02-15T08:04:32.562Z,14.60
2023-02-15T08:07:02.214Z,15.10
2023-02-15T08:09:31.785Z,13.80
2023-02-15T08:12:05.632Z,15.50
2023-02-15T08:14:35.433Z,16.50
2023-02-15T08:17:06.336Z,17.00
2023-02-15T08:19:36.213Z,16.40
2023-02-15T08:22:13.513Z,17.40
2023-02-15T08:24:43.167Z,15.50
2023-02-15T08:27:13.286Z,18.90
2023-02-15T08:29:43.728Z,19.00
2023-02-15T08:32:15.234Z,17.90
2023-02-15T08:34:45.283Z,18.00
2023-02-15T08:37:15.266Z,18.80
2023-02-15T08:39:45.327Z,16.80
2023-02-15T08:42:18.793Z,15.80
2023-02-15T08:44:50.309Z,16.50
2023-02-15T08:47:20.153Z,20.40
2023-02-15T08:52:22.862Z,16.80
2023-02-15T08:54:52.914Z,17.80
2023-02-15T08:57:22.685Z,18.70
2023-02-15T08:59:56.404Z,16.80
2023-02-15T09:02:29.906Z,17.00
2023-02-15T09:05:01.373Z,17.60
2023-02-15T09:07:37.158Z,14.80
2023-02-15T09:10:09.286Z,17.10
2023-02-15T09:12:39.884Z,16.90
2023-02-15T09:15:10.047Z,17.00
2023-02-15T09:17:39.737Z,17.80
2023-02-15T09:20:10.698Z,14.50
2023-02-15T09:22:42.541Z,15.20
2023-02-15T09:25:15.048Z,16.10
2023-02-15T09:27:44.612Z,17.90
2023-02-15T09:30:15.520Z,16.70
2023-02-15T09:32:48.091Z,15.90
2023-02-15T09:35:18.922Z,15.00
2023-02-15T09:37:50.351Z,12.80
2023-02-15T09:41:48.292Z,14.00
2023-02-15T09:44:45.921Z,14.80
2023-02-15T09:47:54.537Z,14.40
2023-02-15T09:51:09.337Z,14.90
2023-02-15T09:54:19.815Z,15.80
2023-02-15T09:57:08.332Z,14.60
2023-02-15T09:59:54.675Z,14.30
2023-02-15T10:02:37.527Z,15.80
2023-02-15T10:06:03.776Z,15.70
2023-02-15T10:08:58.659Z,14.80
2023-02-15T10:12:00.211Z,14.60
2023-02-15T10:15:02.580Z,14.70
2023-02-15T10:18:02.304Z,14.00
2023-02-15T10:20:48.266Z,14.30
2023-02-15T10:23:44.176Z,13.90
2023-02-15T10:26:26.346Z,14.70
2023-02-15T10:29:18.776Z,14.50
2023-02-15T10:32:30.648Z,14.20
2023-02-15T10:35:25.189Z,15.00
2023-02-15T10:38:17.713Z,15.10
2023-02-15T10:41:16.658Z,14.80
2023-02-15T10:44:11.993Z,13.80
2023-02-15T10:47:12.811Z,14.80
2023-02-15T10:50:21.793Z,13.70
2023-02-15T10:53:20.227Z,14.40
2023-02-15T10:56:17.082Z,14.30
2023-02-15T10:59:09.565Z,14.40
2023-02-15T11:01:56.825Z,14.00
2023-02-15T11:04:56.614Z,15.10
2023-02-15T11:07:36.621Z,13.90
2023-02-15T11:10:29.934Z,14.70
2023-02-15T11:13:11.573Z,13.70
2023-02-15T11:15:53.970Z,14.40
2023-02-15T11:18:38.536Z,13.00
2023-02-15T11:21:29.623Z,14.70
2023-02-15T11:24:11.956Z,15.20
2023-02-15T11:26:49.218Z,15.00
2023-02-15T11:29:22.083Z,14.60
2023-02-15T11:31:57.057Z,14.40
2023-02-15T11:34:35.890Z,13.80
2023-02-15T11:37:19.085Z,13.90
2023-02-15T11:39:53.737Z,14.60
2023-02-15T11:42:27.274Z,15.20
2023-02-15T11:45:29.731Z,14.30
2023-02-15T11:48:11.588Z,13.60
2023-02-15T11:50:43.798Z,13.40
2023-02-15T11:53:26.275Z,14.00
2023-02-15T11:55:57.454Z,14.40
2023-02-15T11:58:43.303Z,14.60
2023-02-15T12:01:17.111Z,15.40
2023-02-15T12:04:00.974Z,14.20
2023-02-15T12:06:35.675Z,14.20
2023-02-15T12:09:14.861Z,13.50
2023-02-15T12:11:44.261Z,13.60
2023-02-15T12:14:18.960Z,11.70
2023-02-15T12:16:53.010Z,12.80
2023-02-15T12:19:35.913Z,14.00
2023-02-15T12:22:09.454Z,13.30
2023-02-15T12:24:50.292Z,13.10
2023-02-15T12:27:23.749Z,12.80
2023-02-15T12:30:31.240Z,13.10
2023-02-15T12:33:04.093Z,13.60
2023-02-15T12:35:39.297Z,13.20
2023-02-15T12:38:13.150Z,12.80
2023-02-15T12:40:42.680Z,14.10
2023-02-15T12:43:36.885Z,14.00
2023-02-15T12:46:27.758Z,13.50
2023-02-15T12:49:21.607Z,14.30
2023-02-15T12:51:57.290Z,13.60
2023-02-15T12:54:35.504Z,12.70
2023-02-15T12:57:29.270Z,13.50
2023-02-15T13:00:07.512Z,13.60
2023-02-15T13:02:54.126Z,12.90
2023-02-15T13:05:42.404Z,14.10
2023-02-15T13:08:33.143Z,12.90
2023-02-15T13:11:11.996Z,13.30
2023-02-15T13:14:03.424Z,13.20
2023-02-15T13:17:10.130Z,12.40
2023-02-15T13:19:53.120Z,14.00
2023-02-15T13:22:43.453Z,13.20
2023-02-15T13:25:22.674Z,12.80
2023-02-15T13:28:04.170Z,12.60
2023-02-15T13:30:39.771Z,12.20
2023-02-15T13:33:35.619Z,13.50
2023-02-15T13:36:44.098Z,13.00
2023-02-15T13:39:23.299Z,12.30
2023-02-15T13:42:04.684Z,12.50
2023-02-15T13:44:58.471Z,13.60
2023-02-15T13:48:06.418Z,12.60
2023-02-15T13:50:48.486Z,13.60
2023-02-15T13:53:34.889Z,14.00
2023-02-15T13:56:48.637Z,13.00
2023-02-15T14:02:32.876Z,13.70
2023-02-15T14:05:41.292Z,13.70
2023-02-15T14:08:35.832Z,12.80
2023-02-15T14:11:33.791Z,14.10
2023-02-15T14:14:26.246Z,12.90
2023-02-15T14:17:25.675Z,13.40
2023-02-15T14:20:17.160Z,13.50
2023-02-15T14:22:55.849Z,14.20
2023-02-15T14:25:43.430Z,14.00
2023-02-15T14:28:24.874Z,13.40
2023-02-15T14:30:55.280Z,13.90
2023-02-15T14:33:49.872Z,14.30
2023-02-15T14:36:24.150Z,14.30
2023-02-15T14:39:35.091Z,14.60
2023-02-15T14:42:31.007Z,14.30
2023-02-15T14:45:15.410Z,14.60
2023-02-15T14:48:03.703Z,14.20
2023-02-15T14:50:35.307Z,13.70
2023-02-15T14:53:44.510Z,14.70
2023-02-15T14:56:19.969Z,14.00
2023-02-15T14:58:57.771Z,14.70
2023-02-15T15:01:39.114Z,15.00
2023-02-15T15:04:37.089Z,13.20
2023-02-15T15:07:45.209Z,14.50
2023-02-15T15:10:21.715Z,14.70
2023-02-15T15:13:20.206Z,14.40
2023-02-15T15:15:49.748Z,15.50
2023-02-15T15:18:45.927Z,15.80
2023-02-15T15:21:50.468Z,13.80
2023-02-15T15:24:38.033Z,14.30
2023-02-15T15:27:46.639Z,14.40
2023-02-15T15:30:17.168Z,14.60
2023-02-15T15:32:49.051Z,13.70
2023-02-15T15:35:24.019Z,15.60
2023-02-15T15:38:23.943Z,14.30
2023-02-15T15:41:20.939Z,15.40
2023-02-15T15:44:02.785Z,15.30
2023-02-15T15:47:19.390Z,16.60
2023-02-15T15:49:49.852Z,15.10
2023-02-15T15:52:22.367Z,16.20
2023-02-15T15:54:59.824Z,15.20
2023-02-15T15:57:40.216Z,17.10
2023-02-15T16:00:47.821Z,16.20
2023-02-15T16:03:38.441Z,16.40
2023-02-15T16:06:16.103Z,16.30
2023-02-15T16:08:46.119Z,16.30
2023-02-15T16:11:27.271Z,17.50
2023-02-15T16:13:57.570Z,17.60
2023-02-15T16:16:30.644Z,19.10
2023-02-15T16:19:01.197Z,19.20
2023-02-15T16:21:37.988Z,20.60
2023-02-15T16:24:30.539Z,20.70
2023-02-15T16:27:27.324Z,18.90
2023-02-15T16:29:57.139Z,16.40
2023-02-15T16:32:35.610Z,19.00
2023-02-15T16:35:15.936Z,19.10
2023-02-15T16:37:48.579Z,19.90
2023-02-15T16:40:24.249Z,20.10
2023-02-15T16:43:08.841Z,19.70
2023-02-15T16:45:41.093Z,20.20
2023-02-15T16:48:19.888Z,20.30
2023-02-15T16:50:56.797Z,18.40
2023-02-15T16:53:29.930Z,19.90
2023-02-15T16:56:04.043Z,17.40
2023-02-15T16:58:45.841Z,18.40
2023-02-15T17:01:17.317Z,17.00
2023-02-15T17:03:51.192Z,16.80
2023-02-15T17:06:27.722Z,16.40
2023-02-15T17:09:16.028Z,16.80
2023-02-15T17:11:46.411Z,17.50
2023-02-15T17:14:32.239Z,17.10
2023-02-15T17:17:09.579Z,18.50
2023-02-15T17:19:55.205Z,21.30
2023-02-15T17:22:30.336Z,18.00
2023-02-15T17:25:06.158Z,20.50
2023-02-15T17:27:36.519Z,19.00
2023-02-15T17:30:25.672Z,16.70
2023-02-15T17:33:00.953Z,16.60
2023-02-15T17:35:39.818Z,18.40
2023-02-15T17:38:22.881Z,21.30
2023-02-15T17:40:52.219Z,22.40
2023-02-15T17:43:21.649Z,22.10
2023-02-15T17:46:01.620Z,21.30
2023-02-15T17:48:42.506Z,19.70
2023-02-15T17:51:18.313Z,19.20
2023-02-15T17:54:08.339Z,19.50
2023-02-15T17:56:41.689Z,17.90
2023-02-15T17:59:13.105Z,18.20
2023-02-15T18:02:10.577Z,19.60
2023-02-15T18:04:59.447Z,21.80
2023-02-15T18:07:49.350Z,20.40
2023-02-15T18:10:39.266Z,19.20
2023-02-15T18:13:08.670Z,19.00
2023-02-15T18:15:46.989Z,18.40
2023-02-15T18:18:20.916Z,19.20
2023-02-15T18:20:53.937Z,21.20
2023-02-15T18:23:25.450Z,19.90
2023-02-15T18:25:55.921Z,21.20
2023-02-15T18:28:28.745Z,18.70
2023-02-15T18:31:01.426Z,20.00
2023-02-15T18:33:41.434Z,19.50
2023-02-15T18:36:22.770Z,19.50
2023-02-15T18:39:03.778Z,21.90
2023-02-15T18:41:36.593Z,21.30
2023-02-15T18:44:13.491Z,19.20
2023-02-15T18:46:46.542Z,20.10
2023-02-15T18:49:15.805Z,18.10
2023-02-15T18:51:48.647Z,20.20
2023-02-15T18:54:26.028Z,19.00
2023-02-15T18:59:40.310Z,16.70
2023-02-15T19:02:18.894Z,20.00
2023-02-15T19:04:52.842Z,19.20
2023-02-15T19:07:27.236Z,18.50
2023-02-15T19:10:00.752Z,19.10
2023-02-15T19:12:33.385Z,18.30
2023-02-15T19:15:03.013Z,17.10
2023-02-15T19:17:33.343Z,19.20
2023-02-15T19:20:04.379Z,20.00
2023-02-15T19:22:35.359Z,20.10
2023-02-15T19:25:14.777Z,19.90
2023-02-15T19:27:50.397Z,18.80
2023-02-15T19:30:22.310Z,19.50
2023-02-15T19:32:52.879Z,19.10
2023-02-15T19:35:32.404Z,20.50
2023-02-15T19:38:09.096Z,17.50
2023-02-15T19:40:43.644Z,17.10
2023-02-15T19:43:19.737Z,18.20
2023-02-15T19:45:53.002Z,18.80
2023-02-15T19:48:25.274Z,18.10
2023-02-15T19:50:57.359Z,18.80
2023-02-15T19:53:29.778Z,17.70
2023-02-15T19:55:59.469Z,18.30
2023-02-15T19:58:30.496Z,19.00
2023-02-15T20:01:03.836Z,18.50
2023-02-15T20:03:34.652Z,16.10
2023-02-15T20:06:11.204Z,18.50
2023-02-15T20:08:42.988Z,17.40
2023-02-15T20:11:15.179Z,18.10
2023-02-15T20:13:49.037Z,17.20
2023-02-15T20:16:18.417Z,17.30
2023-02-15T20:18:48.868Z,18.50
2023-02-15T20:21:22.931Z,18.60
2023-02-15T20:23:53.057Z,18.40
2023-02-15T20:26:33.568Z,19.30
2023-02-15T20:29:03.923Z,18.20
2023-02-15T20:31:33.564Z,17.60
2023-02-15T20:34:05.107Z,16.40
2023-02-15T20:36:35.914Z,16.80
2023-02-15T20:39:15.837Z,16.20
2023-02-15T20:41:51.029Z,18.30
2023-02-15T20:44:29.539Z,17.80
2023-02-15T20:47:02.069Z,20.00
2023-02-15T20:49:32.775Z,22.70
2023-02-15T20:52:07.984Z,23.50
2023-02-15T20:54:37.608Z,22.60
2023-02-15T20:57:12.368Z,24.30
2023-02-15T20:59:42.954Z,22.20
2023-02-15T21:02:24.184Z,20.90
2023-02-15T21:04:55.921Z,19.10
2023-02-15T21:07:25.806Z,19.10
2023-02-15T21:09:56.059Z,19.20
2023-02-15T21:12:33.713Z,19.00
2023-02-15T21:15:03.986Z,18.30
2023-02-15T21:17:36.629Z,18.70
2023-02-15T21:20:14.938Z,18.20
2023-02-15T21:22:47.618Z,18.80
2023-02-15T21:28:21.004Z,18.80
2023-02-15T21:30:52.928Z,18.40
2023-02-15T21:33:22.780Z,17.90
2023-02-15T21:35:56.188Z,19.70
2023-02-15T21:42:11.686Z,18.30
2023-02-15T21:47:50.788Z,17.40
2023-02-15T21:48:53.341Z,18.20
2023-02-15T21:51:52.708Z,17.50
2023-02-15T21:54:26.970Z,17.80
2023-02-15T21:57:28.374Z,16.40
2023-02-15T21:59:58.150Z,14.80
2023-02-15T22:02:33.990Z,18.50
2023-02-15T22:05:14.636Z,17.30
2023-02-15T22:07:44.204Z,16.60
2023-02-15T22:10:15.818Z,17.00
2023-02-15T22:25:47.166Z,15.50
2023-02-15T22:28:17.025Z,11.40
2023-02-15T22:30:46.679Z,14.40
2023-02-15T22:33:27.934Z,18.30
2023-02-15T22:35:58.091Z,15.80
2023-02-15T22:38:29.477Z,19.00
2023-02-15T22:41:04.626Z,18.20
2023-02-15T22:43:43.659Z,19.90
2023-02-15T22:46:25.282Z,16.60
2023-02-15T22:48:55.346Z,16.60
2023-02-15T22:51:25.664Z,16.30
2023-02-15T22:53:55.932Z,15.80
2023-02-15T22:56:33.152Z,15.10
2023-02-15T22:59:11.136Z,14.60
2023-02-15T23:01:42.201Z,16.20
2023-02-15T23:04:20.538Z,17.00
2023-02-15T23:06:53.944Z,16.50
2023-02-15T23:09:24.252Z,17.00
2023-02-15T23:11:54.907Z,16.10
2023-02-15T23:14:34.839Z,15.50
2023-02-15T23:17:09.381Z,15.70
2023-02-15T23:19:39.292Z,17.90
2023-02-15T23:22:19.032Z,20.70
2023-02-15T23:24:53.852Z,21.30
2023-02-15T23:27:41.700Z,22.30
2023-02-15T23:30:16.265Z,22.10
2023-02-15T23:32:46.248Z,21.50
2023-02-15T23:35:18.708Z,21.90
2023-02-15T23:40:39.281Z,20.10
2023-02-15T23:43:19.933Z,20.60
2023-02-15T23:45:49.172Z,19.60
2023-02-15T23:48:31.115Z,20.00
2023-02-15T23:51:01.815Z,19.90
2023-02-15T23:53:32.625Z,19.80
2023-02-15T23:56:02.808Z,20.10
2023-02-15T23:58:40.700Z,19.00
